createdAt,value
2022-09-10T00:01:41.188Z,101231.09
2022-09-10T00:04:13.278Z,101236.87
2022-09-10T00:06:43.074Z,101230.09
2022-09-10T00:09:13.981Z,101223.77
2022-09-10T00:11:43.788Z,101221.41
2022-09-10T00:14:15.994Z,101225.50
2022-09-10T00:16:45.407Z,101219.83
2022-09-10T00:19:15.224Z,101209.50
2022-09-10T00:21:45.375Z,101209.59
2022-09-10T00:24:15.161Z,101220.45
2022-09-10T00:26:44.384Z,101220.45
2022-09-10T00:29:16.198Z,101213.80
2022-09-10T00:31:45.700Z,101213.80
2022-09-10T00:34:15.618Z,101201.09
2022-09-10T00:36:45.357Z,101201.09
2022-09-10T00:39:17.103Z,101202.42
2022-09-10T00:41:48.337Z,101194.91
2022-09-10T00:44:44.027Z,101197.94
2022-09-10T00:47:24.933Z,101197.94
2022-09-10T00:50:05.700Z,101196.55
2022-09-10T00:52:39.619Z,101192.52
2022-09-10T00:55:07.874Z,101192.17
2022-09-10T00:57:37.429Z,101192.17
2022-09-10T01:00:12.366Z,101196.59
2022-09-10T01:02:41.955Z,101172.09
2022-09-10T01:05:12.343Z,101177.16
2022-09-10T01:07:41.325Z,101189.80
2022-09-10T01:10:16.175Z,101189.80
2022-09-10T01:13:22.197Z,101177.36
2022-09-10T01:16:09.232Z,101177.36
2022-09-10T01:18:57.377Z,101175.25
2022-09-10T01:21:32.310Z,101175.25
2022-09-10T01:24:30.230Z,101188.02
2022-09-10T01:27:37.137Z,101167.02
2022-09-10T01:30:09.373Z,101167.88
2022-09-10T01:32:49.705Z,101170.49
2022-09-10T01:35:30.580Z,101169.52
2022-09-10T01:38:04.149Z,101168.53
2022-09-10T01:40:35.434Z,101174.89
2022-09-10T01:43:10.079Z,101176.92
2022-09-10T01:45:51.038Z,101170.22
2022-09-10T01:48:31.656Z,101188.17
2022-09-10T01:51:34.266Z,101176.82
2022-09-10T01:54:28.660Z,101177.77
2022-09-10T01:57:09.162Z,101174.73
2022-09-10T01:59:42.186Z,101175.27
2022-09-10T02:02:22.815Z,101165.46
2022-09-10T02:04:54.479Z,101154.00
2022-09-10T02:07:26.936Z,101166.00
2022-09-10T02:09:57.476Z,101163.82
2022-09-10T02:12:26.644Z,101162.58
2022-09-10T02:14:58.393Z,101158.66
2022-09-10T02:17:33.818Z,101150.33
2022-09-10T02:20:05.357Z,101150.33
2022-09-10T02:22:40.077Z,101144.51
2022-09-10T02:25:10.152Z,101163.77
2022-09-10T02:27:39.288Z,101152.51
2022-09-10T02:30:10.379Z,101158.84
2022-09-10T02:32:39.345Z,101153.73
2022-09-10T02:35:09.111Z,101151.62
2022-09-10T02:37:38.066Z,101147.11
2022-09-10T02:40:08.298Z,101159.48
2022-09-10T02:42:38.381Z,101160.00
2022-09-10T02:45:08.385Z,101160.00
2022-09-10T02:47:37.295Z,101152.44
2022-09-10T02:50:07.698Z,101152.44
2022-09-10T02:52:37.396Z,101160.71
2022-09-10T02:55:07.017Z,101145.85
2022-09-10T02:57:36.070Z,101155.86
2022-09-10T03:00:06.054Z,101163.79
2022-09-10T03:02:35.062Z,101163.79
2022-09-10T03:05:07.630Z,101162.27
2022-09-10T03:07:36.660Z,101155.77
2022-09-10T03:10:06.202Z,101162.60
2022-09-10T03:12:35.191Z,101166.19
2022-09-10T03:15:05.204Z,101161.12
2022-09-10T03:17:34.185Z,101165.61
2022-09-10T03:20:03.357Z,101156.36
2022-09-10T03:22:32.387Z,101158.83
2022-09-10T03:25:01.339Z,101162.97
2022-09-10T03:27:30.574Z,101152.97
2022-09-10T03:29:59.571Z,101149.05
2022-09-10T03:32:28.657Z,101155.77
2022-09-10T03:34:57.621Z,101156.41
2022-09-10T03:37:26.991Z,101156.41
2022-09-10T03:39:56.045Z,101154.86
2022-09-10T03:42:25.425Z,101161.38
2022-09-10T03:44:56.061Z,101158.18
2022-09-10T03:47:25.103Z,101174.05
2022-09-10T03:49:54.107Z,101163.19
2022-09-10T03:52:23.143Z,101160.90
2022-09-10T03:54:52.152Z,101161.48
2022-09-10T03:57:21.241Z,101159.00
2022-09-10T03:59:50.279Z,101159.59
2022-09-10T04:02:19.339Z,101153.29
2022-09-10T04:04:48.418Z,101162.93
2022-09-10T04:07:17.309Z,101161.91
2022-09-10T04:09:46.522Z,101181.52
2022-09-10T04:12:15.571Z,101162.17
2022-09-10T04:14:46.404Z,101178.02
2022-09-10T04:17:15.368Z,101186.22
2022-09-10T04:19:44.357Z,101164.38
2022-09-10T04:22:13.516Z,101172.44
2022-09-10T04:24:42.457Z,101173.70
2022-09-10T04:27:11.417Z,101173.70
2022-09-10T04:29:41.146Z,101180.80
2022-09-10T04:32:10.132Z,101195.03
2022-09-10T04:34:39.102Z,101195.53
2022-09-10T04:37:08.090Z,101195.45
2022-09-10T04:39:37.294Z,101209.16
2022-09-10T04:42:08.281Z,101209.16
2022-09-10T04:44:37.505Z,101190.21
2022-09-10T04:47:06.465Z,101194.08
2022-09-10T04:49:35.408Z,101194.08
2022-09-10T04:52:04.551Z,101213.47
2022-09-10T04:54:37.954Z,101205.33
2022-09-10T04:57:07.942Z,101197.35
2022-09-10T04:59:38.491Z,101203.53
2022-09-10T05:02:09.557Z,101203.53
2022-09-10T05:04:39.710Z,101204.45
2022-09-10T05:07:08.656Z,101209.03
2022-09-10T05:09:38.258Z,101209.03
2022-09-10T05:12:07.637Z,101209.03
2022-09-10T05:14:36.476Z,101216.44
2022-09-10T05:17:05.423Z,101227.77
2022-09-10T05:19:34.545Z,101228.52
2022-09-10T05:22:03.791Z,101228.52
2022-09-10T05:24:34.613Z,101231.22
2022-09-10T05:27:03.799Z,101227.86
2022-09-10T05:29:32.873Z,101218.86
2022-09-10T05:32:01.800Z,101218.86
2022-09-10T05:34:30.764Z,101233.23
2022-09-10T05:36:59.758Z,101227.55
2022-09-10T05:39:28.763Z,101227.55
2022-09-10T05:41:57.929Z,101232.33
2022-09-10T05:44:27.027Z,101232.33
2022-09-10T05:46:55.998Z,101226.42
2022-09-10T05:49:25.019Z,101232.19
2022-09-10T05:51:54.053Z,101231.07
2022-09-10T05:54:23.140Z,101228.58
2022-09-10T05:56:52.475Z,101230.69
2022-09-10T05:59:21.470Z,101227.38
2022-09-10T06:01:52.490Z,101225.16
2022-09-10T06:04:21.706Z,101231.48
2022-09-10T06:06:50.576Z,101239.30
2022-09-10T06:09:19.855Z,101240.09
2022-09-10T06:11:51.986Z,101246.30
2022-09-10T06:14:21.058Z,101237.83
2022-09-10T06:16:50.228Z,101246.55
2022-09-10T06:19:20.235Z,101256.70
2022-09-10T06:21:53.512Z,101253.82
2022-09-10T06:24:23.874Z,101256.87
2022-09-10T06:26:53.055Z,101251.63
2022-09-10T06:29:22.834Z,101262.86
2022-09-10T06:31:51.846Z,101244.82
2022-09-10T06:34:20.812Z,101235.83
2022-09-10T06:36:50.931Z,101241.37
2022-09-10T06:39:20.093Z,101232.84
2022-09-10T06:41:49.830Z,101243.97
2022-09-10T06:44:19.035Z,101247.42
2022-09-10T06:47:45.939Z,101247.42
2022-09-10T06:49:18.978Z,101239.72
2022-09-10T06:51:49.573Z,101238.78
2022-09-10T06:54:19.480Z,101230.42
2022-09-10T06:56:50.029Z,101230.33
2022-09-10T06:59:19.042Z,101225.72
2022-09-10T07:01:48.398Z,101225.72
2022-09-10T07:04:17.388Z,101230.81
2022-09-10T07:06:47.806Z,101231.13
2022-09-10T07:09:16.969Z,101223.73
2022-09-10T07:11:45.953Z,101228.36
2022-09-10T07:14:15.166Z,101228.36
2022-09-10T07:16:44.907Z,101225.50
2022-09-10T07:19:15.359Z,101238.59
2022-09-10T07:21:45.026Z,101230.88
2022-09-10T07:24:14.743Z,101241.15
2022-09-10T07:26:43.986Z,101248.46
2022-09-10T07:29:13.199Z,101250.39
2022-09-10T07:31:42.463Z,101256.54
2022-09-10T07:34:11.816Z,101257.77
2022-09-10T07:36:40.809Z,101249.94
2022-09-10T07:39:11.583Z,101252.18
2022-09-10T07:41:40.604Z,101255.98
2022-09-10T07:44:09.625Z,101251.50
2022-09-10T07:46:38.992Z,101245.97
2022-09-10T07:49:08.024Z,101241.15
2022-09-10T07:51:37.000Z,101254.92
2022-09-10T07:54:06.220Z,101254.92
2022-09-10T07:56:36.676Z,101250.13
2022-09-10T07:59:05.657Z,101247.52
2022-09-10T08:01:34.600Z,101236.22
2022-09-10T08:04:05.312Z,101224.63
2022-09-10T08:06:34.226Z,101227.57
2022-09-10T08:09:04.699Z,101227.57
2022-09-10T08:11:34.877Z,101222.42
2022-09-10T08:14:03.889Z,101232.03
2022-09-10T08:16:33.467Z,101225.98
2022-09-10T08:19:02.934Z,101227.16
2022-09-10T08:21:32.067Z,101227.16
2022-09-10T08:24:01.163Z,101237.56
2022-09-10T08:26:30.193Z,101229.53
2022-09-10T08:28:59.489Z,101237.45
2022-09-10T08:31:28.613Z,101237.45
2022-09-10T08:33:58.044Z,101227.52
2022-09-10T08:36:29.201Z,101214.39
2022-09-10T08:39:02.172Z,101205.52
2022-09-10T08:41:35.993Z,101216.60
2022-09-10T08:44:16.069Z,101214.55
2022-09-10T08:47:00.087Z,101203.33
2022-09-10T08:49:52.936Z,101208.31
2022-09-10T08:52:37.761Z,101186.00
2022-09-10T08:55:24.589Z,101199.06
2022-09-10T08:58:02.607Z,101203.19
2022-09-10T09:00:38.033Z,101195.71
2022-09-10T09:03:13.026Z,101201.02
2022-09-10T09:05:50.952Z,101194.25
2022-09-10T09:08:23.299Z,101199.48
2022-09-10T09:11:12.104Z,101199.48
2022-09-10T09:13:49.620Z,101189.47
2022-09-10T09:16:37.210Z,101183.64
2022-09-10T09:19:22.466Z,101194.73
2022-09-10T09:21:56.830Z,101184.01
2022-09-10T09:24:31.714Z,101184.01
2022-09-10T09:27:03.965Z,101186.66
2022-09-10T09:29:39.070Z,101175.38
2022-09-10T09:32:09.939Z,101175.38
2022-09-10T09:34:44.575Z,101173.55
2022-09-10T09:37:16.803Z,101157.09
2022-09-10T09:39:48.751Z,101153.28
2022-09-10T09:42:32.492Z,101152.06
2022-09-10T09:45:28.654Z,101154.45
2022-09-10T09:47:58.192Z,101139.88
2022-09-10T09:50:27.388Z,101139.88
2022-09-10T09:52:57.837Z,101145.37
2022-09-10T09:55:39.047Z,101133.72
2022-09-10T09:58:26.994Z,101133.72
2022-09-10T10:01:08.445Z,101140.75
2022-09-10T10:03:50.650Z,101147.81
2022-09-10T10:06:22.582Z,101145.59
2022-09-10T10:08:57.532Z,101138.37
2022-09-10T10:11:41.569Z,101134.90
2022-09-10T10:14:16.736Z,101138.84
2022-09-10T10:16:47.479Z,101138.84
2022-09-10T10:19:22.527Z,101130.19
2022-09-10T10:21:51.487Z,101130.19
2022-09-10T10:24:34.818Z,101127.27
2022-09-10T10:27:03.874Z,101139.61
2022-09-10T10:29:33.393Z,101137.50
2022-09-10T10:32:05.583Z,101133.39
2022-09-10T10:34:45.646Z,101128.87
2022-09-10T10:37:41.901Z,101128.87
2022-09-10T10:40:16.320Z,101121.55
2022-09-10T10:43:21.002Z,101121.55
2022-09-10T10:46:10.008Z,101111.34
2022-09-10T10:49:16.006Z,101111.34
2022-09-10T10:52:12.108Z,101109.94
2022-09-10T10:54:49.827Z,101099.82
2022-09-10T10:57:30.678Z,101095.45
2022-09-10T11:00:09.583Z,101104.31
2022-09-10T11:03:07.173Z,101093.38
2022-09-10T11:05:41.699Z,101095.01
2022-09-10T11:08:20.614Z,101080.99
2022-09-10T11:10:58.932Z,101075.81
2022-09-10T11:13:32.181Z,101081.86
2022-09-10T11:16:10.216Z,101085.28
2022-09-10T11:18:43.039Z,101075.22
2022-09-10T11:21:23.894Z,101072.38
2022-09-10T11:24:16.969Z,101070.08
2022-09-10T11:26:56.876Z,101068.57
2022-09-10T11:29:28.853Z,101061.08
2022-09-10T11:32:01.082Z,101053.87
2022-09-10T11:34:41.921Z,101054.58
2022-09-10T11:37:35.717Z,101035.89
2022-09-10T11:40:09.727Z,101031.62
2022-09-10T11:42:41.593Z,101031.62
2022-09-10T11:45:36.491Z,101019.91
2022-09-10T11:48:20.178Z,101019.91
2022-09-10T11:50:57.989Z,101020.45
2022-09-10T11:53:28.265Z,101021.53
2022-09-10T11:56:33.403Z,101014.67
2022-09-10T11:59:09.481Z,101006.27
2022-09-10T12:02:02.366Z,101006.77
2022-09-10T12:04:38.021Z,101006.77
2022-09-10T12:07:14.605Z,101003.10
2022-09-10T12:09:52.347Z,100996.37
2022-09-10T12:12:27.088Z,100996.37
2022-09-10T12:14:56.340Z,100988.98
2022-09-10T12:17:31.154Z,100984.66
2022-09-10T12:20:03.452Z,100980.57
2022-09-10T12:22:38.216Z,100981.78
2022-09-10T12:25:10.454Z,100974.75
2022-09-10T12:27:56.059Z,100971.37
2022-09-10T12:30:31.110Z,100965.63
2022-09-10T12:33:02.655Z,100971.92
2022-09-10T12:35:38.237Z,100952.06
2022-09-10T12:38:43.760Z,100949.19
2022-09-10T12:41:17.327Z,100941.70
2022-09-10T12:43:49.316Z,100941.70
2022-09-10T12:46:22.269Z,100949.89
2022-09-10T12:48:56.712Z,100952.16
2022-09-10T12:51:34.662Z,100948.83
2022-09-10T12:54:18.453Z,100948.83
2022-09-10T12:56:57.721Z,100941.28
2022-09-10T12:59:38.350Z,100941.28
2022-09-10T13:02:22.168Z,100941.25
2022-09-10T13:05:09.575Z,100941.25
2022-09-10T13:07:41.794Z,100942.92
2022-09-10T13:10:25.695Z,100942.92
2022-09-10T13:13:00.313Z,100937.88
2022-09-10T13:15:32.256Z,100940.99
2022-09-10T13:18:04.088Z,100927.59
2022-09-10T13:20:35.683Z,100925.73
2022-09-10T13:23:13.566Z,100925.03
2022-09-10T13:25:44.627Z,100915.25
2022-09-10T13:28:34.759Z,100910.23
2022-09-10T13:31:13.285Z,100901.92
2022-09-10T13:33:54.292Z,100901.92
2022-09-10T13:36:31.727Z,100906.73
2022-09-10T13:39:24.747Z,100895.19
2022-09-10T13:42:00.316Z,100895.19
2022-09-10T13:44:48.665Z,100892.23
2022-09-10T13:47:29.332Z,100880.05
2022-09-10T13:50:17.995Z,100884.33
2022-09-10T13:52:50.124Z,100889.87
2022-09-10T13:55:21.920Z,100883.66
2022-09-10T13:57:55.088Z,100888.37
2022-09-10T14:00:30.358Z,100887.87
2022-09-10T14:03:01.826Z,100888.08
2022-09-10T14:05:36.722Z,100867.63
2022-09-10T14:08:14.768Z,100867.93
2022-09-10T14:11:01.725Z,100867.93
2022-09-10T14:13:33.621Z,100871.72
2022-09-10T14:16:06.124Z,100867.13
2022-09-10T14:18:38.124Z,100867.13
2022-09-10T14:21:07.922Z,100862.85
2022-09-10T14:23:38.881Z,100856.52
2022-09-10T14:26:27.164Z,100856.52
2022-09-10T14:28:59.834Z,100870.54
2022-09-10T14:31:38.750Z,100876.04
2022-09-10T14:34:28.766Z,100876.04
2022-09-10T14:36:59.144Z,100870.23
2022-09-10T14:39:28.660Z,100859.72
2022-09-10T14:42:14.169Z,100859.72
2022-09-10T14:44:44.459Z,100857.28
2022-09-10T14:47:15.843Z,100847.06
2022-09-10T14:49:48.050Z,100848.20
2022-09-10T14:52:17.292Z,100861.23
2022-09-10T14:54:47.580Z,100856.08
2022-09-10T14:57:18.388Z,100841.05
2022-09-10T14:59:48.006Z,100845.80
2022-09-10T15:02:22.670Z,100845.80
2022-09-10T15:04:52.496Z,100845.55
2022-09-10T15:07:23.467Z,100840.06
2022-09-10T15:09:53.798Z,100843.11
2022-09-10T15:12:28.713Z,100836.50
2022-09-10T15:14:59.599Z,100841.20
2022-09-10T15:17:28.768Z,100830.31
2022-09-10T15:19:58.137Z,100836.08
2022-09-10T15:22:30.636Z,100827.67
2022-09-10T15:25:15.371Z,100832.02
2022-09-10T15:27:31.004Z,100823.02
2022-09-10T15:30:00.432Z,100823.02
2022-09-10T15:32:31.002Z,100808.41
2022-09-10T15:35:00.013Z,100808.41
2022-09-10T15:37:29.191Z,100811.69
2022-09-10T15:39:58.614Z,100813.59
2022-09-10T15:42:27.601Z,100799.15
2022-09-10T15:44:56.589Z,100813.07
2022-09-10T15:47:26.453Z,100803.31
2022-09-10T15:49:56.971Z,100801.32
2022-09-10T15:52:26.573Z,100807.39
2022-09-10T15:54:55.598Z,100803.09
2022-09-10T15:57:24.598Z,100803.36
2022-09-10T15:59:54.525Z,100803.36
2022-09-10T16:02:23.983Z,100814.80
2022-09-10T16:04:54.115Z,100809.66
2022-09-10T16:07:23.149Z,100805.59
2022-09-10T16:09:52.237Z,100805.59
2022-09-10T16:12:21.210Z,100794.44
2022-09-10T16:14:51.874Z,100799.08
2022-09-10T16:17:21.259Z,100800.73
2022-09-10T16:19:51.793Z,100800.73
2022-09-10T16:22:20.964Z,100789.02
2022-09-10T16:24:50.138Z,100784.42
2022-09-10T16:27:19.178Z,100784.42
2022-09-10T16:29:48.724Z,100801.00
2022-09-10T16:32:18.003Z,100800.44
2022-09-10T16:34:46.912Z,100794.50
2022-09-10T16:37:17.515Z,100804.27
2022-09-10T16:39:46.603Z,100787.45
2022-09-10T16:42:15.792Z,100801.55
2022-09-10T16:44:44.797Z,100794.77
2022-09-10T16:47:14.577Z,100799.37
2022-09-10T16:49:43.602Z,100798.59
2022-09-10T16:52:12.640Z,100787.97
2022-09-10T16:54:42.499Z,100782.27
2022-09-10T16:57:11.467Z,100790.95
2022-09-10T16:59:40.446Z,100788.78
2022-09-10T17:02:12.398Z,100780.11
2022-09-10T17:04:41.425Z,100793.13
2022-09-10T17:07:10.695Z,100793.14
2022-09-10T17:09:39.870Z,100795.58
2022-09-10T17:12:10.736Z,100802.06
2022-09-10T17:14:39.761Z,100802.06
2022-09-10T17:17:10.021Z,100788.78
2022-09-10T17:19:39.208Z,100797.16
2022-09-10T17:22:08.198Z,100804.50
2022-09-10T17:24:37.435Z,100785.52
2022-09-10T17:27:07.103Z,100800.69
2022-09-10T17:29:36.120Z,100800.69
2022-09-10T17:32:05.570Z,100795.25
2022-09-10T17:34:34.529Z,100795.25
2022-09-10T17:37:03.701Z,100793.34
2022-09-10T17:39:32.918Z,100796.63
2022-09-10T17:42:02.174Z,100806.41
2022-09-10T17:44:31.328Z,100806.41
2022-09-10T17:47:00.421Z,100802.87
2022-09-10T17:49:29.546Z,100787.89
2022-09-10T17:52:00.421Z,100787.89
2022-09-10T17:54:29.431Z,100778.67
2022-09-10T17:56:58.553Z,100781.42
2022-09-10T17:59:27.620Z,100775.69
2022-09-10T18:01:58.618Z,100775.69
2022-09-10T18:04:28.195Z,100773.50
2022-09-10T18:06:57.764Z,100773.50
2022-09-10T18:09:27.522Z,100763.76
2022-09-10T18:11:57.151Z,100768.09
2022-09-10T18:14:26.432Z,100763.16
2022-09-10T18:16:56.213Z,100755.31
2022-09-10T18:19:25.710Z,100755.31
2022-09-10T18:21:55.496Z,100761.55
2022-09-10T18:24:25.222Z,100764.27
2022-09-10T18:26:55.272Z,100754.74
2022-09-10T18:29:27.153Z,100746.91
2022-09-10T18:31:58.430Z,100755.85
2022-09-10T18:34:30.197Z,100749.89
2022-09-10T18:37:01.853Z,100756.36
2022-09-10T18:39:33.745Z,100752.05
2022-09-10T18:42:03.417Z,100757.23
2022-09-10T18:44:36.583Z,100746.06
2022-09-10T18:47:28.016Z,100733.01
2022-09-10T18:49:42.502Z,100733.01
2022-09-10T18:52:13.709Z,100724.31
2022-09-10T18:54:46.452Z,100712.92
2022-09-10T18:57:14.204Z,100703.16
2022-09-10T18:59:43.164Z,100711.63
2022-09-10T19:02:13.242Z,100698.84
2022-09-10T19:05:07.315Z,100711.84
2022-09-10T19:07:13.124Z,100716.20
2022-09-10T19:09:42.025Z,100716.20
2022-09-10T19:12:16.231Z,100715.95
2022-09-10T19:14:43.364Z,100729.20
2022-09-10T19:17:12.637Z,100717.03
2022-09-10T19:19:41.797Z,100713.77
2022-09-10T19:22:13.244Z,100727.84
2022-09-10T19:24:54.421Z,100711.34
2022-09-10T19:27:12.815Z,100711.34
2022-09-10T19:29:42.450Z,100715.13
2022-09-10T19:32:11.603Z,100703.16
2022-09-10T19:34:40.888Z,100704.23
2022-09-10T19:37:10.029Z,100704.23
2022-09-10T19:39:39.085Z,100703.72
2022-09-10T19:42:08.315Z,100703.72
2022-09-10T19:44:37.269Z,100689.89
2022-09-10T19:47:06.352Z,100702.61
2022-09-10T19:49:35.620Z,100703.62
2022-09-10T19:52:04.913Z,100705.85
2022-09-10T19:54:33.921Z,100705.85
2022-09-10T19:57:02.996Z,100682.24
2022-09-10T19:59:32.162Z,100688.95
2022-09-10T20:02:01.742Z,100690.25
2022-09-10T20:04:30.979Z,100688.66
2022-09-10T20:07:02.713Z,100698.98
2022-09-10T20:09:31.795Z,100698.98
2022-09-10T20:12:00.813Z,100692.42
2022-09-10T20:14:30.297Z,100691.58
2022-09-10T20:16:59.546Z,100692.11
2022-09-10T20:19:29.603Z,100686.50
2022-09-10T20:21:58.898Z,100685.55
2022-09-10T20:24:28.610Z,100656.30
2022-09-10T20:26:57.980Z,100656.30
2022-09-10T20:29:28.727Z,100685.59
2022-09-10T20:31:57.776Z,100685.59
2022-09-10T20:34:27.691Z,100661.20
2022-09-10T20:36:56.746Z,100661.20
2022-09-10T20:39:25.996Z,100667.94
2022-09-10T20:41:55.154Z,100685.26
2022-09-10T20:44:24.668Z,100685.26
2022-09-10T20:46:53.806Z,100670.70
2022-09-10T20:49:22.841Z,100664.34
2022-09-10T20:51:52.732Z,100661.16
2022-09-10T20:54:21.699Z,100661.16
2022-09-10T20:56:50.664Z,100652.72
2022-09-10T20:59:24.309Z,100657.66
2022-09-10T21:01:52.049Z,100669.54
2022-09-10T21:04:22.106Z,100669.54
2022-09-10T21:06:51.067Z,100658.14
2022-09-10T21:09:20.065Z,100654.34
2022-09-10T21:11:49.396Z,100654.34
2022-09-10T21:14:18.938Z,100661.02
2022-09-10T21:16:47.962Z,100661.02
2022-09-10T21:19:17.989Z,100675.42
2022-09-10T21:21:49.495Z,100662.12
2022-09-10T21:24:22.612Z,100671.70
2022-09-10T21:26:53.435Z,100671.70
2022-09-10T21:29:23.164Z,100651.42
2022-09-10T21:31:53.748Z,100651.34
2022-09-10T21:34:23.557Z,100651.34
2022-09-10T21:36:52.524Z,100639.16
2022-09-10T21:39:21.497Z,100638.88
2022-09-10T21:41:51.759Z,100638.88
2022-09-10T21:44:25.196Z,100645.56
2022-09-10T21:46:54.439Z,100639.21
2022-09-10T21:49:23.393Z,100639.21
2022-09-10T21:51:52.897Z,100643.73
2022-09-10T21:54:23.264Z,100637.52
2022-09-10T21:56:53.595Z,100636.36
2022-09-10T21:59:23.398Z,100636.36
2022-09-10T22:01:54.051Z,100621.44
2022-09-10T22:04:23.483Z,100619.63
2022-09-10T22:06:54.572Z,100643.00
2022-09-10T22:09:24.501Z,100643.00
2022-09-10T22:11:56.429Z,100609.55
2022-09-10T22:14:26.775Z,100608.93
2022-09-10T22:16:56.080Z,100619.39
2022-09-10T22:19:27.479Z,100619.39
2022-09-10T22:21:57.589Z,100611.63
2022-09-10T22:24:28.118Z,100611.63
2022-09-10T22:26:57.187Z,100599.63
2022-09-10T22:29:26.173Z,100603.75
2022-09-10T22:31:55.719Z,100600.27
2022-09-10T22:34:24.944Z,100636.17
2022-09-10T22:36:55.732Z,100581.08
2022-09-10T22:39:24.712Z,100602.90
2022-09-10T22:41:54.368Z,100607.63
2022-09-10T22:44:23.578Z,100607.63
2022-09-10T22:46:52.759Z,100588.23
2022-09-10T22:49:22.157Z,100588.23
2022-09-10T22:51:51.520Z,100583.73
2022-09-10T22:54:20.417Z,100587.15
2022-09-10T22:56:49.377Z,100585.25
2022-09-10T22:59:18.530Z,100585.25
2022-09-10T23:01:47.809Z,100570.34
2022-09-10T23:04:17.372Z,100573.93
2022-09-10T23:06:46.430Z,100569.95
2022-09-10T23:09:17.972Z,100586.50
2022-09-10T23:11:47.961Z,100586.50
2022-09-10T23:14:21.755Z,100586.98
2022-09-10T23:16:52.220Z,100580.05
2022-09-10T23:19:24.228Z,100605.88
2022-09-10T23:21:55.239Z,100592.20
2022-09-10T23:24:26.690Z,100591.83
2022-09-10T23:26:56.381Z,100591.83
2022-09-10T23:29:25.569Z,100571.47
2022-09-10T23:31:54.621Z,100574.23
2022-09-10T23:34:24.028Z,100564.83
2022-09-10T23:36:54.101Z,100572.02
2022-09-10T23:39:25.319Z,100572.02
2022-09-10T23:41:58.420Z,100576.66
2022-09-10T23:44:28.802Z,100571.12
2022-09-10T23:46:57.798Z,100571.12
2022-09-10T23:49:26.757Z,100564.89
2022-09-10T23:51:55.739Z,100568.83
2022-09-10T23:54:25.012Z,100568.83
2022-09-10T23:56:54.135Z,100576.59
2022-09-10T23:59:23.093Z,100584.42
